createdAt,value
2023-07-24T00:02:03.577Z,20.69
2023-07-24T00:04:33.373Z,20.70
2023-07-24T00:07:02.224Z,20.77
2023-07-24T00:09:29.794Z,20.66
2023-07-24T00:11:57.349Z,20.57
2023-07-24T00:14:24.951Z,20.59
2023-07-24T00:16:52.546Z,20.77
2023-07-24T00:19:20.365Z,20.75
2023-07-24T00:21:49.234Z,20.63
2023-07-24T00:24:16.819Z,20.50
2023-07-24T00:26:44.454Z,20.65
2023-07-24T00:29:11.954Z,20.63
2023-07-24T00:31:39.432Z,20.51
2023-07-24T00:34:06.978Z,20.49
2023-07-24T00:36:34.484Z,20.37
2023-07-24T00:39:03.340Z,20.37
2023-07-24T00:41:30.823Z,20.32
2023-07-24T00:43:58.396Z,20.32
2023-07-24T00:46:26.567Z,20.32
2023-07-24T00:48:55.154Z,20.31
2023-07-24T00:51:22.798Z,20.32
2023-07-24T00:53:50.330Z,20.38
2023-07-24T00:56:19.242Z,20.32
2023-07-24T00:58:46.864Z,20.30
2023-07-24T01:01:14.457Z,20.37
2023-07-24T01:03:42.052Z,20.39
2023-07-24T01:06:09.587Z,20.35
2023-07-24T01:08:37.224Z,20.34
2023-07-24T01:11:11.847Z,20.30
2023-07-24T01:13:46.340Z,20.38
2023-07-24T01:16:16.642Z,20.40
2023-07-24T01:18:46.864Z,20.33
2023-07-24T01:21:18.712Z,20.21
2023-07-24T01:23:53.854Z,20.20
2023-07-24T01:26:24.866Z,20.18
2023-07-24T01:28:52.363Z,20.15
2023-07-24T01:31:19.934Z,20.09
2023-07-24T01:33:47.712Z,20.13
2023-07-24T01:36:16.290Z,20.07
2023-07-24T01:38:44.264Z,20.21
2023-07-24T01:41:12.131Z,20.13
2023-07-24T01:43:40.963Z,20.06
2023-07-24T01:46:09.623Z,20.01
2023-07-24T01:48:37.209Z,19.95
2023-07-24T01:51:05.154Z,20.00
2023-07-24T01:53:32.654Z,19.92
2023-07-24T01:56:00.322Z,19.89
2023-07-24T01:58:27.816Z,19.91
2023-07-24T02:00:58.274Z,19.98
2023-07-24T02:03:25.863Z,19.97
2023-07-24T02:05:53.620Z,19.88
2023-07-24T02:08:21.279Z,19.90
2023-07-24T02:10:50.648Z,19.94
2023-07-24T02:13:18.170Z,20.04
2023-07-24T02:15:45.662Z,20.10
2023-07-24T02:18:14.515Z,20.04
2023-07-24T02:20:42.002Z,20.05
2023-07-24T02:23:11.072Z,19.94
2023-07-24T02:25:38.568Z,19.84
2023-07-24T02:28:06.080Z,19.82
2023-07-24T02:30:33.557Z,19.84
2023-07-24T02:33:01.166Z,19.77
2023-07-24T02:35:30.034Z,19.66
2023-07-24T02:37:57.556Z,19.70
2023-07-24T02:40:25.047Z,19.65
2023-07-24T02:42:52.558Z,19.60
2023-07-24T02:45:20.275Z,19.64
2023-07-24T02:47:47.817Z,19.67
2023-07-24T02:50:15.482Z,19.71
2023-07-24T02:52:44.350Z,19.60
2023-07-24T02:55:11.944Z,19.51
2023-07-24T02:57:39.458Z,19.58
2023-07-24T03:00:09.557Z,19.59
2023-07-24T03:02:37.264Z,19.63
2023-07-24T03:05:05.304Z,19.62
2023-07-24T03:07:33.446Z,19.54
2023-07-24T03:10:02.329Z,19.42
2023-07-24T03:12:29.860Z,19.39
2023-07-24T03:14:57.359Z,19.38
2023-07-24T03:17:25.135Z,19.25
2023-07-24T03:19:52.683Z,19.25
2023-07-24T03:22:20.176Z,19.41
2023-07-24T03:24:47.803Z,19.37
2023-07-24T03:27:16.699Z,19.30
2023-07-24T03:29:44.224Z,19.17
2023-07-24T03:32:11.736Z,19.05
2023-07-24T03:34:40.214Z,19.15
2023-07-24T03:37:07.701Z,19.22
2023-07-24T03:39:35.250Z,19.10
2023-07-24T03:42:04.039Z,19.11
2023-07-24T03:44:32.983Z,19.15
2023-07-24T03:47:00.639Z,19.08
2023-07-24T03:49:28.244Z,19.08
2023-07-24T03:51:55.745Z,18.99
2023-07-24T03:54:23.268Z,19.04
2023-07-24T03:56:50.742Z,19.03
2023-07-24T03:59:18.590Z,18.98
2023-07-24T04:01:47.509Z,19.04
2023-07-24T04:04:15.061Z,19.08
2023-07-24T04:06:42.576Z,19.00
2023-07-24T04:09:11.870Z,18.96
2023-07-24T04:11:40.423Z,18.96
2023-07-24T04:14:07.903Z,18.97
2023-07-24T04:16:35.780Z,19.00
2023-07-24T04:19:05.453Z,19.09
2023-07-24T04:21:33.143Z,19.15
2023-07-24T04:24:00.680Z,19.28
2023-07-24T04:26:28.581Z,19.15
2023-07-24T04:28:56.300Z,19.11
2023-07-24T04:31:23.883Z,19.09
2023-07-24T04:33:51.472Z,19.07
2023-07-24T04:36:20.341Z,19.08
2023-07-24T04:38:48.366Z,19.12
2023-07-24T04:41:15.919Z,19.09
2023-07-24T04:43:43.589Z,19.17
2023-07-24T04:46:11.185Z,19.19
2023-07-24T04:48:38.767Z,19.26
2023-07-24T04:51:06.260Z,19.22
2023-07-24T04:53:35.090Z,19.32
2023-07-24T04:56:02.668Z,19.35
2023-07-24T04:58:30.251Z,19.34
2023-07-24T05:00:57.762Z,19.40
2023-07-24T05:03:33.597Z,19.35
2023-07-24T05:06:01.171Z,19.35
2023-07-24T05:08:28.749Z,19.52
2023-07-24T05:10:58.354Z,19.51
2023-07-24T05:13:25.891Z,19.50
2023-07-24T05:15:53.531Z,19.49
2023-07-24T05:18:21.209Z,19.49
2023-07-24T05:20:52.156Z,19.42
2023-07-24T05:23:19.736Z,19.35
2023-07-24T05:25:47.311Z,19.44
2023-07-24T05:28:16.159Z,19.46
2023-07-24T05:30:43.708Z,19.38
2023-07-24T05:33:11.251Z,19.57
2023-07-24T05:35:38.758Z,19.66
2023-07-24T05:38:06.258Z,19.73
2023-07-24T05:40:33.829Z,19.77
2023-07-24T05:43:01.389Z,19.82
2023-07-24T05:45:30.216Z,19.91
2023-07-24T05:47:57.769Z,20.02
2023-07-24T05:50:25.324Z,20.03
2023-07-24T05:52:52.839Z,20.04
2023-07-24T05:55:20.323Z,20.10
2023-07-24T05:57:47.841Z,20.20
2023-07-24T06:00:15.776Z,20.19
2023-07-24T06:02:44.731Z,20.25
2023-07-24T06:05:12.420Z,20.30
2023-07-24T06:07:39.960Z,20.29
2023-07-24T06:10:08.543Z,20.36
2023-07-24T06:12:36.157Z,20.43
2023-07-24T06:15:04.363Z,20.41
2023-07-24T06:17:31.949Z,20.38
2023-07-24T06:20:01.086Z,20.47
2023-07-24T06:22:28.654Z,20.53
2023-07-24T06:24:56.178Z,20.67
2023-07-24T06:27:23.743Z,20.63
2023-07-24T06:29:53.366Z,20.58
2023-07-24T06:32:23.356Z,20.76
2023-07-24T06:34:50.921Z,20.79
2023-07-24T06:37:23.159Z,20.90
2023-07-24T06:39:50.981Z,21.03
2023-07-24T06:42:18.490Z,21.16
2023-07-24T06:44:46.021Z,21.27
2023-07-24T06:47:13.513Z,21.37
2023-07-24T06:49:41.083Z,21.40
2023-07-24T06:52:08.955Z,21.42
2023-07-24T06:54:37.842Z,21.46
2023-07-24T06:57:05.724Z,21.70
2023-07-24T06:59:33.282Z,21.86
2023-07-24T07:02:00.873Z,22.11
2023-07-24T07:04:28.393Z,22.36
2023-07-24T07:06:56.192Z,22.40
2023-07-24T07:09:23.693Z,22.66
2023-07-24T07:11:52.574Z,22.73
2023-07-24T07:14:20.079Z,22.89
2023-07-24T07:16:48.664Z,23.01
2023-07-24T07:19:16.265Z,23.13
2023-07-24T07:21:43.787Z,23.20
2023-07-24T07:24:11.294Z,23.32
2023-07-24T07:26:38.839Z,23.44
2023-07-24T07:29:07.703Z,23.46
2023-07-24T07:31:35.292Z,23.45
2023-07-24T07:34:02.816Z,23.53
2023-07-24T07:36:30.682Z,23.56
2023-07-24T07:38:58.382Z,23.56
2023-07-24T07:41:25.939Z,23.58
2023-07-24T07:43:53.448Z,23.71
2023-07-24T07:46:22.348Z,23.67
2023-07-24T07:48:50.289Z,23.70
2023-07-24T07:51:17.894Z,23.74
2023-07-24T07:53:45.444Z,23.76
2023-07-24T07:56:12.986Z,23.79
2023-07-24T07:58:40.508Z,23.77
2023-07-24T08:01:08.565Z,23.88
2023-07-24T08:03:37.763Z,23.92
2023-07-24T08:06:05.304Z,23.93
2023-07-24T08:08:32.931Z,23.84
2023-07-24T08:11:00.428Z,23.67
2023-07-24T08:13:27.957Z,23.73
2023-07-24T08:15:55.475Z,23.82
2023-07-24T08:18:23.066Z,23.89
2023-07-24T08:20:51.892Z,23.98
2023-07-24T08:23:19.404Z,24.04
2023-07-24T08:25:53.546Z,24.12
2023-07-24T08:28:21.199Z,24.05
2023-07-24T08:30:57.619Z,23.97
2023-07-24T08:33:25.258Z,24.06
2023-07-24T08:36:02.661Z,24.16
2023-07-24T08:38:30.310Z,24.14
2023-07-24T08:41:05.885Z,24.14
2023-07-24T08:43:34.054Z,24.26
2023-07-24T08:46:02.863Z,24.50
2023-07-24T08:48:34.294Z,24.63
2023-07-24T08:51:03.949Z,24.67
2023-07-24T08:53:32.285Z,24.79
2023-07-24T08:56:02.701Z,24.92
2023-07-24T08:58:30.359Z,25.10
2023-07-24T09:00:59.104Z,25.16
2023-07-24T09:03:27.228Z,25.20
2023-07-24T09:05:54.947Z,25.09
2023-07-24T09:08:32.364Z,25.29
2023-07-24T09:11:00.188Z,25.44
2023-07-24T09:13:27.868Z,25.41
2023-07-24T09:15:55.985Z,25.54
2023-07-24T09:18:23.836Z,25.54
2023-07-24T09:20:53.048Z,25.56
2023-07-24T09:23:28.801Z,25.59
2023-07-24T09:25:57.774Z,25.59
2023-07-24T09:28:25.359Z,25.53
2023-07-24T09:30:54.944Z,25.48
2023-07-24T09:33:22.884Z,25.23
2023-07-24T09:35:59.987Z,25.23
2023-07-24T09:38:27.556Z,25.25
2023-07-24T09:40:57.911Z,25.23
2023-07-24T09:43:39.048Z,25.23
2023-07-24T09:46:08.904Z,25.35
2023-07-24T09:48:43.630Z,25.41
2023-07-24T09:51:27.235Z,25.35
2023-07-24T09:53:58.359Z,25.54
2023-07-24T09:56:38.956Z,25.65
2023-07-24T09:59:15.625Z,25.95
2023-07-24T10:01:44.146Z,26.02
2023-07-24T10:04:12.272Z,25.82
2023-07-24T10:06:40.065Z,25.87
2023-07-24T10:09:09.130Z,26.00
2023-07-24T10:11:38.014Z,26.17
2023-07-24T10:14:06.028Z,26.43
2023-07-24T10:16:34.728Z,26.57
2023-07-24T10:19:02.303Z,26.62
2023-07-24T10:21:30.415Z,26.38
2023-07-24T10:24:01.931Z,26.26
2023-07-24T10:26:29.537Z,26.08
2023-07-24T10:28:59.053Z,26.15
2023-07-24T10:31:28.982Z,26.15
2023-07-24T10:33:58.091Z,25.92
2023-07-24T10:36:25.641Z,25.88
2023-07-24T10:38:55.254Z,25.93
2023-07-24T10:41:23.086Z,26.08
2023-07-24T10:43:52.088Z,26.11
2023-07-24T10:46:22.701Z,26.14
2023-07-24T10:48:52.895Z,26.20
2023-07-24T10:51:20.529Z,26.27
2023-07-24T10:53:50.141Z,26.35
2023-07-24T10:56:18.838Z,26.42
2023-07-24T10:58:46.382Z,26.25
2023-07-24T11:01:15.242Z,26.20
2023-07-24T11:03:44.602Z,26.35
2023-07-24T11:06:15.957Z,26.19
2023-07-24T11:08:44.040Z,26.15
2023-07-24T11:11:13.190Z,26.00
2023-07-24T11:13:40.711Z,26.00
2023-07-24T11:16:09.920Z,25.85
2023-07-24T11:18:54.016Z,25.83
2023-07-24T11:21:22.524Z,25.98
2023-07-24T11:23:51.248Z,25.87
2023-07-24T11:26:21.185Z,25.95
2023-07-24T11:28:48.740Z,25.95
2023-07-24T11:31:17.025Z,25.81
2023-07-24T11:33:46.707Z,25.74
2023-07-24T11:36:14.759Z,25.95
2023-07-24T11:38:43.098Z,25.93
2023-07-24T11:41:11.075Z,26.09
2023-07-24T11:43:47.604Z,26.12
2023-07-24T11:46:24.922Z,26.19
2023-07-24T11:48:56.756Z,26.20
2023-07-24T11:51:25.533Z,26.12
2023-07-24T11:53:53.291Z,26.04
2023-07-24T11:56:23.008Z,25.96
2023-07-24T11:58:50.556Z,25.98
2023-07-24T12:01:18.104Z,25.97
2023-07-24T12:03:45.794Z,26.00
2023-07-24T12:06:17.951Z,26.01
2023-07-24T12:08:46.416Z,26.13
2023-07-24T12:11:20.605Z,26.20
2023-07-24T12:13:48.168Z,26.13
2023-07-24T12:16:15.775Z,26.15
2023-07-24T12:18:43.305Z,26.48
2023-07-24T12:21:10.826Z,26.72
2023-07-24T12:23:40.948Z,26.76
2023-07-24T12:26:08.606Z,26.78
2023-07-24T12:28:36.179Z,27.02
2023-07-24T12:31:04.672Z,27.32
2023-07-24T12:33:32.379Z,27.58
2023-07-24T12:35:59.941Z,27.46
2023-07-24T12:38:27.488Z,27.63
2023-07-24T12:40:56.372Z,27.53
2023-07-24T12:43:23.975Z,27.36
2023-07-24T12:45:51.606Z,27.31
2023-07-24T12:48:19.122Z,27.26
2023-07-24T12:50:46.681Z,27.42
2023-07-24T12:53:15.811Z,27.37
2023-07-24T12:55:49.267Z,27.32
2023-07-24T12:58:18.211Z,27.19
2023-07-24T13:00:45.825Z,27.12
2023-07-24T13:03:13.458Z,26.98
2023-07-24T13:05:41.337Z,26.90
2023-07-24T13:08:08.929Z,26.71
2023-07-24T13:10:36.504Z,26.87
2023-07-24T13:13:04.140Z,26.75
2023-07-24T13:15:33.297Z,26.71
2023-07-24T13:18:07.679Z,26.48
2023-07-24T13:20:45.555Z,26.44
2023-07-24T13:23:13.224Z,26.33
2023-07-24T13:25:40.761Z,26.36
2023-07-24T13:28:08.291Z,26.21
2023-07-24T13:30:37.169Z,26.11
2023-07-24T13:33:04.858Z,26.27
2023-07-24T13:35:32.428Z,26.46
2023-07-24T13:38:00.024Z,26.74
2023-07-24T13:40:27.523Z,26.58
2023-07-24T13:42:55.027Z,26.59
2023-07-24T13:45:22.538Z,26.79
2023-07-24T13:47:51.459Z,26.87
2023-07-24T13:50:19.134Z,26.57
2023-07-24T13:52:46.741Z,26.36
2023-07-24T13:55:15.117Z,26.24
2023-07-24T13:57:42.907Z,25.78
2023-07-24T14:00:11.393Z,24.71
2023-07-24T14:02:39.069Z,24.61
2023-07-24T14:05:09.916Z,24.41
2023-07-24T14:07:37.401Z,24.39
2023-07-24T14:10:05.334Z,24.44
2023-07-24T14:12:32.873Z,24.23
2023-07-24T14:15:00.448Z,24.38
2023-07-24T14:17:27.967Z,24.48
2023-07-24T14:19:55.545Z,24.69
2023-07-24T14:22:26.728Z,24.86
2023-07-24T14:24:55.981Z,25.06
2023-07-24T14:27:23.531Z,25.14
2023-07-24T14:29:51.087Z,25.18
2023-07-24T14:32:18.630Z,25.23
2023-07-24T14:34:46.135Z,25.22
2023-07-24T14:37:13.695Z,25.41
2023-07-24T14:39:42.962Z,25.53
2023-07-24T14:42:10.499Z,25.50
2023-07-24T14:44:38.065Z,25.61
2023-07-24T14:47:06.205Z,25.73
2023-07-24T14:49:33.725Z,25.88
2023-07-24T14:52:01.254Z,25.89
2023-07-24T14:54:28.768Z,25.88
2023-07-24T14:57:04.615Z,25.54
2023-07-24T14:59:38.174Z,25.60
2023-07-24T15:02:06.212Z,25.88
2023-07-24T15:04:33.744Z,25.85
2023-07-24T15:07:01.311Z,25.81
2023-07-24T15:09:28.872Z,25.67
2023-07-24T15:11:58.964Z,25.59
2023-07-24T15:14:27.024Z,25.40
2023-07-24T15:16:54.538Z,25.21
2023-07-24T15:19:22.054Z,25.05
2023-07-24T15:21:49.593Z,24.95
2023-07-24T15:24:18.934Z,25.02
2023-07-24T15:26:47.168Z,25.05
2023-07-24T15:29:19.405Z,24.64
2023-07-24T15:31:47.559Z,24.16
2023-07-24T15:34:15.131Z,22.64
2023-07-24T15:36:42.712Z,22.45
2023-07-24T15:39:10.231Z,22.16
2023-07-24T15:41:37.729Z,22.11
2023-07-24T15:44:05.539Z,22.23
2023-07-24T15:46:34.595Z,22.11
2023-07-24T15:49:02.289Z,22.30
2023-07-24T15:51:31.064Z,22.40
2023-07-24T15:53:59.478Z,22.25
2023-07-24T15:56:29.951Z,22.26
2023-07-24T15:58:57.482Z,22.28
2023-07-24T16:01:26.609Z,22.56
2023-07-24T16:03:58.384Z,22.60
2023-07-24T16:06:25.979Z,22.68
2023-07-24T16:08:53.634Z,22.84
2023-07-24T16:11:21.158Z,22.89
2023-07-24T16:13:48.683Z,22.67
2023-07-24T16:16:16.188Z,22.72
2023-07-24T16:18:43.862Z,22.78
2023-07-24T16:21:12.808Z,22.57
2023-07-24T16:23:40.374Z,22.71
2023-07-24T16:26:07.956Z,22.90
2023-07-24T16:28:35.524Z,22.90
2023-07-24T16:31:03.117Z,22.89
2023-07-24T16:33:31.337Z,23.02
2023-07-24T16:36:01.556Z,22.83
2023-07-24T16:38:30.480Z,22.74
2023-07-24T16:40:58.433Z,22.74
2023-07-24T16:43:25.974Z,22.73
2023-07-24T16:48:27.162Z,22.66
2023-07-24T16:50:55.045Z,22.65
2023-07-24T16:53:22.614Z,22.46
2023-07-24T16:55:51.946Z,22.31
2023-07-24T16:58:22.322Z,22.56
2023-07-24T17:00:50.050Z,22.51
2023-07-24T17:03:17.604Z,22.35
2023-07-24T17:05:45.187Z,22.22
2023-07-24T17:08:13.286Z,22.13
2023-07-24T17:10:45.011Z,22.04
2023-07-24T17:13:14.109Z,22.51
2023-07-24T17:15:41.990Z,23.17
2023-07-24T17:18:09.592Z,23.64
2023-07-24T17:20:39.089Z,24.05
2023-07-24T17:23:06.652Z,24.36
2023-07-24T17:25:34.326Z,24.54
2023-07-24T17:28:01.872Z,23.94
2023-07-24T17:30:30.896Z,23.45
2023-07-24T17:32:59.336Z,23.02
2023-07-24T17:35:27.000Z,22.60
2023-07-24T17:37:54.520Z,22.63
2023-07-24T17:40:22.390Z,22.39
2023-07-24T17:42:50.196Z,22.13
2023-07-24T17:45:18.963Z,22.07
2023-07-24T17:47:47.886Z,21.95
2023-07-24T17:50:15.430Z,21.92
2023-07-24T17:52:42.992Z,21.99
2023-07-24T17:55:10.564Z,21.95
2023-07-24T17:57:38.108Z,21.83
2023-07-24T18:00:07.139Z,21.87
2023-07-24T18:02:34.748Z,21.78
2023-07-24T18:05:03.720Z,21.61
2023-07-24T18:07:31.268Z,21.75
2023-07-24T18:09:58.775Z,21.69
2023-07-24T18:12:26.881Z,21.80
2023-07-24T18:14:54.531Z,21.65
2023-07-24T18:17:22.247Z,21.61
2023-07-24T18:19:49.811Z,21.59
2023-07-24T18:22:20.212Z,21.62
2023-07-24T18:24:47.878Z,21.66
2023-07-24T18:27:15.512Z,21.58
2023-07-24T18:29:43.127Z,21.53
2023-07-24T18:32:10.857Z,21.48
2023-07-24T18:34:38.409Z,21.51
2023-07-24T18:37:07.408Z,21.48
2023-07-24T18:39:36.398Z,21.44
2023-07-24T18:42:04.918Z,21.41
2023-07-24T18:44:33.964Z,21.40
2023-07-24T18:47:01.517Z,21.37
2023-07-24T18:49:29.083Z,21.48
2023-07-24T18:51:56.678Z,21.45
2023-07-24T18:54:24.352Z,21.45
2023-07-24T18:56:53.341Z,21.36
2023-07-24T18:59:20.921Z,21.41
2023-07-24T19:01:49.100Z,21.33
2023-07-24T19:04:16.679Z,21.42
2023-07-24T19:06:44.298Z,21.49
2023-07-24T19:09:11.857Z,21.43
2023-07-24T19:11:39.392Z,21.42
2023-07-24T19:14:08.290Z,21.39
2023-07-24T19:16:36.336Z,21.41
2023-07-24T19:19:06.527Z,21.40
2023-07-24T19:21:34.049Z,21.33
2023-07-24T19:24:01.612Z,21.19
2023-07-24T19:26:29.313Z,21.15
2023-07-24T19:28:56.984Z,21.08
2023-07-24T19:31:25.980Z,20.94
2023-07-24T19:33:53.547Z,20.91
2023-07-24T19:36:21.242Z,20.88
2023-07-24T19:38:48.748Z,20.93
2023-07-24T19:41:16.255Z,20.85
2023-07-24T19:43:43.824Z,20.71
2023-07-24T19:46:11.769Z,20.66
2023-07-24T19:48:40.905Z,20.73
2023-07-24T19:51:08.460Z,20.71
2023-07-24T19:53:36.186Z,20.72
2023-07-24T19:56:03.747Z,20.65
2023-07-24T19:58:34.156Z,20.65
2023-07-24T20:01:02.437Z,20.59
2023-07-24T20:03:30.286Z,20.60
2023-07-24T20:06:02.702Z,20.57
2023-07-24T20:08:33.566Z,20.47
2023-07-24T20:11:03.629Z,20.33
2023-07-24T20:13:31.228Z,20.41
2023-07-24T20:15:59.584Z,20.26
2023-07-24T20:18:27.231Z,20.30
2023-07-24T20:20:56.119Z,20.28
2023-07-24T20:23:25.120Z,20.03
2023-07-24T20:25:52.843Z,19.94
2023-07-24T20:28:21.686Z,20.04
2023-07-24T20:30:49.403Z,20.03
2023-07-24T20:33:17.467Z,20.05
2023-07-24T20:35:50.540Z,20.01
2023-07-24T20:38:27.698Z,19.90
2023-07-24T20:40:55.875Z,19.97
2023-07-24T20:43:23.596Z,19.93
2023-07-24T20:45:52.675Z,19.88
2023-07-24T20:48:21.327Z,19.90
2023-07-24T20:50:48.980Z,19.82
2023-07-24T20:53:16.688Z,19.83
2023-07-24T20:55:45.541Z,19.73
2023-07-24T20:58:13.043Z,19.60
2023-07-24T21:00:40.659Z,19.62
2023-07-24T21:03:08.324Z,19.61
2023-07-24T21:05:38.233Z,19.63
2023-07-24T21:08:06.143Z,19.50
2023-07-24T21:10:33.696Z,19.44
2023-07-24T21:13:02.652Z,19.50
2023-07-24T21:15:30.244Z,19.51
2023-07-24T21:17:57.810Z,19.55
2023-07-24T21:20:25.410Z,19.45
2023-07-24T21:22:52.997Z,19.59
2023-07-24T21:25:20.643Z,19.55
2023-07-24T21:27:48.163Z,19.33
2023-07-24T21:30:17.078Z,19.38
2023-07-24T21:32:44.632Z,19.43
2023-07-24T21:35:11.303Z,19.41
2023-07-24T21:37:40.098Z,19.27
2023-07-24T21:40:09.057Z,19.24
2023-07-24T21:42:36.809Z,19.29
2023-07-24T21:45:04.865Z,19.36
2023-07-24T21:47:33.729Z,19.34
2023-07-24T21:50:01.289Z,19.40
2023-07-24T21:52:28.890Z,19.33
2023-07-24T21:54:56.387Z,19.13
2023-07-24T21:57:23.960Z,19.15
2023-07-24T21:59:51.475Z,19.23
2023-07-24T22:02:19.048Z,19.26
2023-07-24T22:04:47.944Z,19.28
2023-07-24T22:07:15.460Z,19.24
2023-07-24T22:09:43.015Z,19.13
2023-07-24T22:12:10.707Z,19.15
2023-07-24T22:14:38.233Z,19.09
2023-07-24T22:17:06.812Z,19.09
2023-07-24T22:19:34.444Z,19.07
2023-07-24T22:22:03.853Z,19.09
2023-07-24T22:24:33.776Z,18.97
2023-07-24T22:27:01.303Z,18.93
2023-07-24T22:29:31.892Z,18.81
2023-07-24T22:32:02.899Z,18.76
2023-07-24T22:34:30.416Z,18.80
2023-07-24T22:36:57.939Z,18.71
2023-07-24T22:39:26.817Z,18.62
2023-07-24T22:41:54.352Z,18.60
2023-07-24T22:44:21.868Z,18.56
2023-07-24T22:46:49.697Z,18.47
2023-07-24T22:49:17.295Z,18.45
2023-07-24T22:51:44.877Z,18.56
2023-07-24T22:54:12.417Z,18.53
2023-07-24T22:56:43.077Z,18.51
2023-07-24T22:59:22.514Z,18.38
2023-07-24T23:01:51.550Z,18.34
2023-07-24T23:04:20.387Z,18.39
2023-07-24T23:06:47.904Z,18.29
2023-07-24T23:09:15.486Z,18.15
2023-07-24T23:11:44.379Z,18.20
2023-07-24T23:14:11.962Z,18.06
2023-07-24T23:16:39.466Z,18.12
2023-07-24T23:19:07.037Z,18.06
2023-07-24T23:21:34.791Z,18.02
2023-07-24T23:24:02.404Z,18.04
2023-07-24T23:26:29.938Z,17.91
2023-07-24T23:28:59.531Z,17.90
2023-07-24T23:31:27.189Z,17.91
2023-07-24T23:33:55.439Z,17.97
2023-07-24T23:36:32.142Z,17.96
2023-07-24T23:38:59.722Z,17.98
2023-07-24T23:41:27.800Z,17.94
2023-07-24T23:43:55.597Z,17.96
2023-07-24T23:46:24.737Z,17.99
2023-07-24T23:48:52.388Z,17.91
2023-07-24T23:51:21.160Z,17.92
2023-07-24T23:53:49.470Z,17.95
2023-07-24T23:56:19.091Z,17.87
2023-07-24T23:58:46.682Z,17.93
